sensor_id;sensor_type;location;lat;lon;timestamp;pressure;altitude;pressure_sealevel;temperature;humidity
78603;BME280;68102;46.068;18.206;2023-04-15T00:00:18;99129.75;;;7.59;86.76
78603;BME280;68102;46.068;18.206;2023-04-15T00:00:49;99124.91;;;7.54;85.85
78603;BME280;68102;46.068;18.206;2023-04-15T00:01:21;99114.00;;;7.49;86.08
78603;BME280;68102;46.068;18.206;2023-04-15T00:01:53;99129.75;;;7.59;86.13
78603;BME280;68102;46.068;18.206;2023-04-15T00:02:24;99137.25;;;7.64;86.17
78603;BME280;68102;46.068;18.206;2023-04-15T00:02:54;99130.19;;;7.64;86.40
78603;BME280;68102;46.068;18.206;2023-04-15T00:03:25;99128.09;;;7.58;86.29
78603;BME280;68102;46.068;18.206;2023-04-15T00:03:55;99132.50;;;7.57;85.74
78603;BME280;68102;46.068;18.206;2023-04-15T00:04:26;99128.22;;;7.56;85.86
78603;BME280;68102;46.068;18.206;2023-04-15T00:04:57;99119.38;;;7.48;85.92
78603;BME280;68102;46.068;18.206;2023-04-15T00:05:30;99126.56;;;7.55;86.00
78603;BME280;68102;46.068;18.206;2023-04-15T00:06:01;99128.09;;;7.58;86.01
78603;BME280;68102;46.068;18.206;2023-04-15T00:06:37;99130.84;;;7.56;86.38
78603;BME280;68102;46.068;18.206;2023-04-15T00:07:10;99128.09;;;7.48;86.17
78603;BME280;68102;46.068;18.206;2023-04-15T00:07:40;99121.47;;;7.44;86.36
78603;BME280;68102;46.068;18.206;2023-04-15T00:08:11;99128.38;;;7.45;86.69
78603;BME280;68102;46.068;18.206;2023-04-15T00:08:42;99135.53;;;7.43;86.52
78603;BME280;68102;46.068;18.206;2023-04-15T00:09:12;99125.00;;;7.34;86.90
78603;BME280;68102;46.068;18.206;2023-04-15T00:09:43;99121.38;;;7.25;86.84
78603;BME280;68102;46.068;18.206;2023-04-15T00:10:13;99113.09;;;7.20;87.06
78603;BME280;68102;46.068;18.206;2023-04-15T00:10:44;99125.38;;;7.19;87.70
78603;BME280;68102;46.068;18.206;2023-04-15T00:11:16;99127.50;;;7.25;87.43
78603;BME280;68102;46.068;18.206;2023-04-15T00:11:49;99114.31;;;7.16;87.58
78603;BME280;68102;46.068;18.206;2023-04-15T00:12:21;99126.22;;;7.20;87.81
78603;BME280;68102;46.068;18.206;2023-04-15T00:12:51;99111.69;;;7.16;87.23
78603;BME280;68102;46.068;18.206;2023-04-15T00:13:22;99138.81;;;7.26;87.20
78603;BME280;68102;46.068;18.206;2023-04-15T00:13:52;99127.31;;;7.17;87.39
78603;BME280;68102;46.068;18.206;2023-04-15T00:14:23;99127.44;;;7.16;86.99
78603;BME280;68102;46.068;18.206;2023-04-15T00:14:54;99128.28;;;7.16;87.38
78603;BME280;68102;46.068;18.206;2023-04-15T00:15:26;99130.75;;;7.18;87.14
78603;BME280;68102;46.068;18.206;2023-04-15T00:15:57;99123.72;;;7.18;86.61
78603;BME280;68102;46.068;18.206;2023-04-15T00:16:27;99130.75;;;7.18;87.42
78603;BME280;68102;46.068;18.206;2023-04-15T00:16:58;99132.41;;;7.19;87.23
78603;BME280;68102;46.068;18.206;2023-04-15T00:17:29;99117.34;;;7.11;86.91
78603;BME280;68102;46.068;18.206;2023-04-15T00:18:00;99117.34;;;7.11;87.43
78603;BME280;68102;46.068;18.206;2023-04-15T00:18:31;99118.06;;;7.13;87.56
78603;BME280;68102;46.068;18.206;2023-04-15T00:19:02;99138.50;;;7.19;86.62
78603;BME280;68102;46.068;18.206;2023-04-15T00:19:32;99136.06;;;7.27;86.55
78603;BME280;68102;46.068;18.206;2023-04-15T00:20:03;99121.09;;;7.18;86.84
78603;BME280;68102;46.068;18.206;2023-04-15T00:20:35;99139.50;;;7.28;86.79
78603;BME280;68102;46.068;18.206;2023-04-15T00:21:06;99128.31;;;7.26;86.63
78603;BME280;68102;46.068;18.206;2023-04-15T00:21:37;99123.31;;;7.23;85.99
78603;BME280;68102;46.068;18.206;2023-04-15T00:22:07;99133.84;;;7.33;85.89
78603;BME280;68102;46.068;18.206;2023-04-15T00:22:38;99132.19;;;7.32;86.22
78603;BME280;68102;46.068;18.206;2023-04-15T00:23:09;99134.97;;;7.30;86.65
78603;BME280;68102;46.068;18.206;2023-04-15T00:23:40;99136.91;;;7.38;86.15
78603;BME280;68102;46.068;18.206;2023-04-15T00:24:10;99119.47;;;7.27;85.75
78603;BME280;68102;46.068;18.206;2023-04-15T00:24:42;99132.63;;;7.37;86.19
78603;BME280;68102;46.068;18.206;2023-04-15T00:25:13;99128.19;;;7.37;86.01
78603;BME280;68102;46.068;18.206;2023-04-15T00:25:44;99117.81;;;7.26;86.00
78603;BME280;68102;46.068;18.206;2023-04-15T00:26:15;99114.38;;;7.25;86.08
78603;BME280;68102;46.068;18.206;2023-04-15T00:26:45;99129.44;;;7.33;85.75
78603;BME280;68102;46.068;18.206;2023-04-15T00:27:16;99106.91;;;7.31;85.47
78603;BME280;68102;46.068;18.206;2023-04-15T00:27:46;99117.00;;;7.35;85.68
78603;BME280;68102;46.068;18.206;2023-04-15T00:28:18;99124.88;;;7.35;86.09
78603;BME280;68102;46.068;18.206;2023-04-15T00:28:48;99119.91;;;7.32;85.81
78603;BME280;68102;46.068;18.206;2023-04-15T00:29:19;99114.22;;;7.27;85.24
78603;BME280;68102;46.068;18.206;2023-04-15T00:29:49;99136.06;;;7.37;85.16
78603;BME280;68102;46.068;18.206;2023-04-15T00:30:20;99108.56;;;7.32;85.69
78603;BME280;68102;46.068;18.206;2023-04-15T00:30:51;99125.88;;;7.44;85.10
78603;BME280;68102;46.068;18.206;2023-04-15T00:31:21;99121.31;;;7.46;85.41
78603;BME280;68102;46.068;18.206;2023-04-15T00:31:52;99108.16;;;7.36;85.13
78603;BME280;68102;46.068;18.206;2023-04-15T00:32:23;99118.09;;;7.42;84.89
78603;BME280;68102;46.068;18.206;2023-04-15T00:32:54;99127.41;;;7.46;84.49
78603;BME280;68102;46.068;18.206;2023-04-15T00:33:25;99113.50;;;7.25;84.58
78603;BME280;68102;46.068;18.206;2023-04-15T00:33:56;99126.13;;;7.31;84.82
78603;BME280;68102;46.068;18.206;2023-04-15T00:34:26;99119.22;;;7.30;85.20
78603;BME280;68102;46.068;18.206;2023-04-15T00:34:58;99111.19;;;7.32;85.11
78603;BME280;68102;46.068;18.206;2023-04-15T00:35:29;99116.31;;;7.43;85.13
78603;BME280;68102;46.068;18.206;2023-04-15T00:36:03;99114.50;;;7.43;85.11
78603;BME280;68102;46.068;18.206;2023-04-15T00:36:35;99110.22;;;7.42;85.53
78603;BME280;68102;46.068;18.206;2023-04-15T00:37:06;99123.81;;;7.47;85.04
78603;BME280;68102;46.068;18.206;2023-04-15T00:37:36;99102.78;;;7.38;85.50
78603;BME280;68102;46.068;18.206;2023-04-15T00:38:07;99120.63;;;7.44;85.55
78603;BME280;68102;46.068;18.206;2023-04-15T00:38:37;99115.94;;;7.47;84.96
78603;BME280;68102;46.068;18.206;2023-04-15T00:39:08;99119.53;;;7.46;84.89
78603;BME280;68102;46.068;18.206;2023-04-15T00:39:39;99118.56;;;7.47;85.33
78603;BME280;68102;46.068;18.206;2023-04-15T00:40:12;99099.44;;;7.36;85.19
78603;BME280;68102;46.068;18.206;2023-04-15T00:40:43;99100.97;;;7.28;84.96
78603;BME280;68102;46.068;18.206;2023-04-15T00:41:13;99127.41;;;7.46;84.58
78603;BME280;68102;46.068;18.206;2023-04-15T00:41:45;99117.69;;;7.37;84.69
78603;BME280;68102;46.068;18.206;2023-04-15T00:42:17;99106.63;;;7.34;84.86
78603;BME280;68102;46.068;18.206;2023-04-15T00:42:49;99112.84;;;7.33;85.51
78603;BME280;68102;46.068;18.206;2023-04-15T00:43:20;99127.78;;;7.42;85.25
78603;BME280;68102;46.068;18.206;2023-04-15T00:43:50;99113.69;;;7.33;85.20
78603;BME280;68102;46.068;18.206;2023-04-15T00:44:21;99123.25;;;7.44;84.58
78603;BME280;68102;46.068;18.206;2023-04-15T00:44:52;99118.66;;;7.36;84.78
78603;BME280;68102;46.068;18.206;2023-04-15T00:45:23;99106.78;;;7.32;84.56
78603;BME280;68102;46.068;18.206;2023-04-15T00:45:55;99119.75;;;7.43;85.17
78603;BME280;68102;46.068;18.206;2023-04-15T00:46:29;99117.00;;;7.35;85.00
78603;BME280;68102;46.068;18.206;2023-04-15T00:47:00;99122.38;;;7.43;85.23
78603;BME280;68102;46.068;18.206;2023-04-15T00:47:32;99118.69;;;7.46;85.23
78603;BME280;68102;46.068;18.206;2023-04-15T00:48:05;99127.53;;;7.45;85.64
78603;BME280;68102;46.068;18.206;2023-04-15T00:48:36;99121.97;;;7.38;85.57
78603;BME280;68102;46.068;18.206;2023-04-15T00:49:08;99113.69;;;7.33;85.34
78603;BME280;68102;46.068;18.206;2023-04-15T00:49:39;99140.06;;;7.41;85.39
78603;BME280;68102;46.068;18.206;2023-04-15T00:50:11;99127.78;;;7.32;85.56
78603;BME280;68102;46.068;18.206;2023-04-15T00:50:42;99105.38;;;7.28;85.66
78603;BME280;68102;46.068;18.206;2023-04-15T00:51:13;99125.44;;;7.39;85.01
78603;BME280;68102;46.068;18.206;2023-04-15T00:51:44;99126.66;;;7.35;85.01
78603;BME280;68102;46.068;18.206;2023-04-15T00:52:15;99134.13;;;7.39;84.89
78603;BME280;68102;46.068;18.206;2023-04-15T00:52:45;99132.19;;;7.41;85.28
78603;BME280;68102;46.068;18.206;2023-04-15T00:53:16;99117.41;;;7.31;84.96
78603;BME280;68102;46.068;18.206;2023-04-15T00:53:46;99134.13;;;7.39;85.20
78603;BME280;68102;46.068;18.206;2023-04-15T00:54:17;99119.22;;;7.30;85.77
78603;BME280;68102;46.068;18.206;2023-04-15T00:54:48;99122.53;;;7.32;85.63
78603;BME280;68102;46.068;18.206;2023-04-15T00:55:20;99110.38;;;7.31;85.09
78603;BME280;68102;46.068;18.206;2023-04-15T00:55:52;99104.41;;;7.29;85.45
78603;BME280;68102;46.068;18.206;2023-04-15T00:56:23;99123.91;;;7.36;85.27
78603;BME280;68102;46.068;18.206;2023-04-15T00:56:54;99121.13;;;7.28;85.70
78603;BME280;68102;46.068;18.206;2023-04-15T00:57:27;99125.16;;;7.32;85.63
78603;BME280;68102;46.068;18.206;2023-04-15T00:57:58;99119.91;;;7.32;85.90
78603;BME280;68102;46.068;18.206;2023-04-15T00:58:28;99117.97;;;7.34;86.34
78603;BME280;68102;46.068;18.206;2023-04-15T00:59:00;99111.47;;;7.28;86.29
78603;BME280;68102;46.068;18.206;2023-04-15T00:59:32;99095.41;;;7.12;86.13
78603;BME280;68102;46.068;18.206;2023-04-15T01:00:04;99100.25;;;7.17;86.01
78603;BME280;68102;46.068;18.206;2023-04-15T01:00:37;99103.81;;;7.16;86.74
78603;BME280;68102;46.068;18.206;2023-04-15T01:01:09;99093.19;;;7.08;85.98
78603;BME280;68102;46.068;18.206;2023-04-15T01:01:40;99101.19;;;7.16;86.74
78603;BME280;68102;46.068;18.206;2023-04-15T01:02:12;99117.22;;;7.22;86.54
78603;BME280;68102;46.068;18.206;2023-04-15T01:02:44;99120.00;;;7.21;86.61
78603;BME280;68102;46.068;18.206;2023-04-15T01:03:14;99106.72;;;7.13;86.94
78603;BME280;68102;46.068;18.206;2023-04-15T01:03:45;99081.69;;;6.99;86.95
78603;BME280;68102;46.068;18.206;2023-04-15T01:04:16;99091.06;;;7.02;87.11
78603;BME280;68102;46.068;18.206;2023-04-15T01:04:47;99094.25;;;7.05;87.41
78603;BME280;68102;46.068;18.206;2023-04-15T01:05:18;99094.25;;;7.05;87.41
78603;BME280;68102;46.068;18.206;2023-04-15T01:05:49;99106.16;;;7.09;87.61
78603;BME280;68102;46.068;18.206;2023-04-15T01:06:20;99082.22;;;6.93;87.83
78603;BME280;68102;46.068;18.206;2023-04-15T01:06:53;99099.91;;;7.01;88.00
78603;BME280;68102;46.068;18.206;2023-04-15T01:07:23;99106.13;;;6.99;88.00
78603;BME280;68102;46.068;18.206;2023-04-15T01:07:54;99095.59;;;6.90;88.26
78603;BME280;68102;46.068;18.206;2023-04-15T01:08:27;99086.44;;;6.84;88.35
78603;BME280;68102;46.068;18.206;2023-04-15T01:08:59;99094.19;;;6.86;88.31
78603;BME280;68102;46.068;18.206;2023-04-15T01:09:31;99098.59;;;6.85;88.41
78603;BME280;68102;46.068;18.206;2023-04-15T01:10:03;99093.63;;;6.82;88.99
78603;BME280;68102;46.068;18.206;2023-04-15T01:10:33;99095.00;;;6.77;89.45
78603;BME280;68102;46.068;18.206;2023-04-15T01:11:06;99096.78;;;6.76;89.34
78603;BME280;68102;46.068;18.206;2023-04-15T01:11:37;99107.69;;;6.81;89.67
78603;BME280;68102;46.068;18.206;2023-04-15T01:12:11;99108.66;;;6.80;89.13
78603;BME280;68102;46.068;18.206;2023-04-15T01:12:44;99088.03;;;6.66;89.38
78603;BME280;68102;46.068;18.206;2023-04-15T01:13:15;99100.63;;;6.72;89.87
78603;BME280;68102;46.068;18.206;2023-04-15T01:13:46;99088.56;;;6.60;89.71
78603;BME280;68102;46.068;18.206;2023-04-15T01:14:18;99092.00;;;6.60;89.67
78603;BME280;68102;46.068;18.206;2023-04-15T01:14:49;99091.72;;;6.54;89.76
78603;BME280;68102;46.068;18.206;2023-04-15T01:15:20;99105.13;;;6.60;89.89
78603;BME280;68102;46.068;18.206;2023-04-15T01:15:51;99100.41;;;6.54;89.98
78603;BME280;68102;46.068;18.206;2023-04-15T01:16:22;99111.19;;;6.61;90.41
78603;BME280;68102;46.068;18.206;2023-04-15T01:16:53;99111.34;;;6.59;90.66
78603;BME280;68102;46.068;18.206;2023-04-15T01:17:24;99099.72;;;6.52;90.43
78603;BME280;68102;46.068;18.206;2023-04-15T01:17:56;99108.16;;;6.56;90.24
78603;BME280;68102;46.068;18.206;2023-04-15T01:18:29;99111.47;;;6.58;90.88
78603;BME280;68102;46.068;18.206;2023-04-15T01:18:59;99109.94;;;6.55;90.74
78603;BME280;68102;46.068;18.206;2023-04-15T01:19:31;99092.63;;;6.43;90.78
78603;BME280;68102;46.068;18.206;2023-04-15T01:20:01;99100.22;;;6.46;91.41
78603;BME280;68102;46.068;18.206;2023-04-15T01:20:33;99100.09;;;6.48;90.86
78603;BME280;68102;46.068;18.206;2023-04-15T01:21:05;99100.91;;;6.48;91.28
78603;BME280;68102;46.068;18.206;2023-04-15T01:21:36;99119.59;;;6.55;91.38
78603;BME280;68102;46.068;18.206;2023-04-15T01:22:09;99106.16;;;6.48;90.99
78603;BME280;68102;46.068;18.206;2023-04-15T01:22:40;99100.59;;;6.42;90.73
78603;BME280;68102;46.068;18.206;2023-04-15T01:23:11;99108.91;;;6.47;91.08
78603;BME280;68102;46.068;18.206;2023-04-15T01:23:45;99099.91;;;6.40;90.88
78603;BME280;68102;46.068;18.206;2023-04-15T01:24:17;99117.34;;;6.50;90.72
78603;BME280;68102;46.068;18.206;2023-04-15T01:24:56;99105.59;;;6.45;90.86
78603;BME280;68102;46.068;18.206;2023-04-15T01:25:33;99105.31;;;6.48;91.08
78603;BME280;68102;46.068;18.206;2023-04-15T01:26:05;99113.66;;;6.53;90.74
78603;BME280;68102;46.068;18.206;2023-04-15T01:26:39;99106.97;;;6.49;91.11
78603;BME280;68102;46.068;18.206;2023-04-15T01:27:11;99105.47;;;6.46;91.03
78603;BME280;68102;46.068;18.206;2023-04-15T01:27:42;99101.16;;;6.45;90.68
78603;BME280;68102;46.068;18.206;2023-04-15T01:28:16;99102.84;;;6.46;90.92
78603;BME280;68102;46.068;18.206;2023-04-15T01:28:47;99109.25;;;6.53;90.57
78603;BME280;68102;46.068;18.206;2023-04-15T01:29:18;99095.09;;;6.45;90.95
78603;BME280;68102;46.068;18.206;2023-04-15T01:29:49;99109.81;;;6.57;91.09
78603;BME280;68102;46.068;18.206;2023-04-15T01:30:19;99103.16;;;6.53;90.99
78603;BME280;68102;46.068;18.206;2023-04-15T01:31:05;99107.19;;;6.57;91.09
78603;BME280;68102;46.068;18.206;2023-04-15T01:31:36;99120.72;;;6.62;91.15
78603;BME280;68102;46.068;18.206;2023-04-15T01:32:07;99104.28;;;6.60;91.08
78603;BME280;68102;46.068;18.206;2023-04-15T01:32:38;99099.19;;;6.58;91.09
78603;BME280;68102;46.068;18.206;2023-04-15T01:33:09;99102.94;;;6.65;90.70
78603;BME280;68102;46.068;18.206;2023-04-15T01:33:41;99110.44;;;6.70;90.50
78603;BME280;68102;46.068;18.206;2023-04-15T01:34:12;99104.22;;;6.71;90.86
78603;BME280;68102;46.068;18.206;2023-04-15T01:34:43;99117.78;;;6.76;90.33
78603;BME280;68102;46.068;18.206;2023-04-15T01:35:13;99105.88;;;6.72;91.09
78603;BME280;68102;46.068;18.206;2023-04-15T01:35:44;99112.53;;;6.86;90.52
78603;BME280;68102;46.068;18.206;2023-04-15T01:36:15;99098.31;;;6.79;90.42
78603;BME280;68102;46.068;18.206;2023-04-15T01:36:46;99107.31;;;6.86;90.07
78603;BME280;68102;46.068;18.206;2023-04-15T01:37:16;99103.16;;;6.83;90.30
78603;BME280;68102;46.068;18.206;2023-04-15T01:37:48;99097.34;;;6.80;90.31
78603;BME280;68102;46.068;18.206;2023-04-15T01:38:18;99099.13;;;6.79;89.45
78603;BME280;68102;46.068;18.206;2023-04-15T01:38:49;99118.25;;;6.91;89.74
78603;BME280;68102;46.068;18.206;2023-04-15T01:39:20;99091.41;;;6.78;89.00
78603;BME280;68102;46.068;18.206;2023-04-15T01:39:51;99114.09;;;6.88;89.10
78603;BME280;68102;46.068;18.206;2023-04-15T01:40:21;99107.44;;;6.84;89.80
78603;BME280;68102;46.068;18.206;2023-04-15T01:40:52;99107.16;;;6.87;89.29
78603;BME280;68102;46.068;18.206;2023-04-15T01:41:26;99114.53;;;6.93;89.50
78603;BME280;68102;46.068;18.206;2023-04-15T01:41:57;99115.34;;;6.94;89.82
78603;BME280;68102;46.068;18.206;2023-04-15T01:42:34;99119.25;;;6.99;89.33
78603;BME280;68102;46.068;18.206;2023-04-15T01:43:06;99121.56;;;6.93;89.21
78603;BME280;68102;46.068;18.206;2023-04-15T01:43:36;99112.88;;;6.92;89.83
78603;BME280;68102;46.068;18.206;2023-04-15T01:44:07;99114.94;;;6.98;89.17
78603;BME280;68102;46.068;18.206;2023-04-15T01:44:38;99113.84;;;7.01;89.23
78603;BME280;68102;46.068;18.206;2023-04-15T01:45:10;99107.22;;;6.97;89.56
78603;BME280;68102;46.068;18.206;2023-04-15T01:45:42;99108.03;;;6.97;89.39
78603;BME280;68102;46.068;18.206;2023-04-15T01:46:13;99105.69;;;6.94;89.19
78603;BME280;68102;46.068;18.206;2023-04-15T01:46:43;99111.63;;;6.96;89.51
78603;BME280;68102;46.068;18.206;2023-04-15T01:47:15;99126.56;;;7.06;88.63
78603;BME280;68102;46.068;18.206;2023-04-15T01:47:45;99108.88;;;6.98;88.96
78603;BME280;68102;46.068;18.206;2023-04-15T01:48:17;99114.00;;;6.99;88.40
78603;BME280;68102;46.068;18.206;2023-04-15T01:48:48;99110.94;;;6.94;88.79
78603;BME280;68102;46.068;18.206;2023-04-15T01:49:18;99120.63;;;7.04;88.90
78603;BME280;68102;46.068;18.206;2023-04-15T01:49:50;99118.97;;;7.03;89.44
78603;BME280;68102;46.068;18.206;2023-04-15T01:50:21;99114.00;;;6.99;89.32
78603;BME280;68102;46.068;18.206;2023-04-15T01:50:53;99116.63;;;6.99;89.24
78603;BME280;68102;46.068;18.206;2023-04-15T01:51:24;99119.66;;;7.05;89.75
78603;BME280;68102;46.068;18.206;2023-04-15T01:51:55;99098.66;;;6.95;89.71
78603;BME280;68102;46.068;18.206;2023-04-15T01:52:25;99123.94;;;7.06;89.79
78603;BME280;68102;46.068;18.206;2023-04-15T01:52:56;99116.63;;;6.99;89.23
78603;BME280;68102;46.068;18.206;2023-04-15T01:53:26;99100.03;;;6.89;89.43
78603;BME280;68102;46.068;18.206;2023-04-15T01:53:58;99118.41;;;6.99;89.42
78603;BME280;68102;46.068;18.206;2023-04-15T01:54:29;99106.09;;;6.90;89.46
78603;BME280;68102;46.068;18.206;2023-04-15T01:55:02;99097.91;;;6.83;89.44
78603;BME280;68102;46.068;18.206;2023-04-15T01:55:32;99113.00;;;6.91;89.27
78603;BME280;68102;46.068;18.206;2023-04-15T01:56:03;99101.06;;;6.77;89.15
78603;BME280;68102;46.068;18.206;2023-04-15T01:56:34;99134.81;;;6.91;89.45
78603;BME280;68102;46.068;18.206;2023-04-15T01:57:04;99108.66;;;6.80;89.86
78603;BME280;68102;46.068;18.206;2023-04-15T01:57:35;99114.88;;;6.79;90.19
78603;BME280;68102;46.068;18.206;2023-04-15T01:58:06;99128.88;;;6.89;89.88
78603;BME280;68102;46.068;18.206;2023-04-15T01:58:37;99112.38;;;6.78;89.58
78603;BME280;68102;46.068;18.206;2023-04-15T01:59:07;99118.19;;;6.81;89.60
78603;BME280;68102;46.068;18.206;2023-04-15T01:59:39;99127.84;;;6.81;89.64
78603;BME280;68102;46.068;18.206;2023-04-15T02:00:10;99122.75;;;6.79;89.47
78603;BME280;68102;46.068;18.206;2023-04-15T02:00:41;99128.28;;;6.86;89.39
78603;BME280;68102;46.068;18.206;2023-04-15T02:01:12;99113.22;;;6.78;89.42
78603;BME280;68102;46.068;18.206;2023-04-15T02:01:42;99115.97;;;6.77;89.58
78603;BME280;68102;46.068;18.206;2023-04-15T02:02:14;99132.34;;;6.90;89.64
78603;BME280;68102;46.068;18.206;2023-04-15T02:02:45;99109.69;;;6.89;89.55
78603;BME280;68102;46.068;18.206;2023-04-15T02:03:16;99122.41;;;6.93;89.18
78603;BME280;68102;46.068;18.206;2023-04-15T02:03:47;99108.59;;;6.91;88.51
78603;BME280;68102;46.068;18.206;2023-04-15T02:04:17;99118.97;;;7.03;88.12
78603;BME280;68102;46.068;18.206;2023-04-15T02:04:48;99123.72;;;7.09;88.59
78603;BME280;68102;46.068;18.206;2023-04-15T02:05:19;99122.47;;;7.13;88.11
78603;BME280;68102;46.068;18.206;2023-04-15T02:05:50;99116.25;;;7.14;88.31
78603;BME280;68102;46.068;18.206;2023-04-15T02:06:20;99121.38;;;7.15;87.69
78603;BME280;68102;46.068;18.206;2023-04-15T02:06:51;99117.75;;;7.07;88.03
78603;BME280;68102;46.068;18.206;2023-04-15T02:07:22;99117.22;;;7.13;87.80
78603;BME280;68102;46.068;18.206;2023-04-15T02:07:53;99107.00;;;7.10;87.98
78603;BME280;68102;46.068;18.206;2023-04-15T02:08:25;99111.66;;;7.06;87.93
78603;BME280;68102;46.068;18.206;2023-04-15T02:08:56;99136.88;;;7.28;87.34
78603;BME280;68102;46.068;18.206;2023-04-15T02:09:26;99128.56;;;7.23;87.15
78603;BME280;68102;46.068;18.206;2023-04-15T02:09:57;99134.41;;;7.36;87.80
78603;BME280;68102;46.068;18.206;2023-04-15T02:10:28;99135.78;;;7.40;87.51
78603;BME280;68102;46.068;18.206;2023-04-15T02:10:59;99131.66;;;7.38;87.01
78603;BME280;68102;46.068;18.206;2023-04-15T02:11:30;99115.06;;;7.37;86.92
78603;BME280;68102;46.068;18.206;2023-04-15T02:12:01;99124.31;;;7.41;86.66
78603;BME280;68102;46.068;18.206;2023-04-15T02:12:31;99115.75;;;7.39;87.02
78603;BME280;68102;46.068;18.206;2023-04-15T02:13:02;99123.63;;;7.39;87.01
78603;BME280;68102;46.068;18.206;2023-04-15T02:13:32;99136.94;;;7.47;86.66
78603;BME280;68102;46.068;18.206;2023-04-15T02:14:03;99117.28;;;7.42;86.47
78603;BME280;68102;46.068;18.206;2023-04-15T02:14:35;99120.63;;;7.44;86.72
78603;BME280;68102;46.068;18.206;2023-04-15T02:15:06;99120.34;;;7.47;86.28
78603;BME280;68102;46.068;18.206;2023-04-15T02:15:36;99128.09;;;7.48;86.68
78603;BME280;68102;46.068;18.206;2023-04-15T02:16:19;99130.03;;;7.56;86.13
78603;BME280;68102;46.068;18.206;2023-04-15T02:16:49;99140.94;;;7.61;85.85
78603;BME280;68102;46.068;18.206;2023-04-15T02:17:20;99123.94;;;7.55;85.95
78603;BME280;68102;46.068;18.206;2023-04-15T02:17:51;99134.44;;;7.55;86.08
78603;BME280;68102;46.068;18.206;2023-04-15T02:18:21;99127.25;;;7.57;85.59
78603;BME280;68102;46.068;18.206;2023-04-15T02:18:52;99128.09;;;7.58;85.85
78603;BME280;68102;46.068;18.206;2023-04-15T02:19:23;99140.41;;;7.57;85.51
78603;BME280;68102;46.068;18.206;2023-04-15T02:19:57;99136.09;;;7.56;85.94
78603;BME280;68102;46.068;18.206;2023-04-15T02:20:28;99120.91;;;7.50;85.35
78603;BME280;68102;46.068;18.206;2023-04-15T02:21:01;99137.78;;;7.57;85.42
78603;BME280;68102;46.068;18.206;2023-04-15T02:21:35;99127.69;;;7.53;85.77
78603;BME280;68102;46.068;18.206;2023-04-15T02:22:05;99124.34;;;7.51;85.87
78603;BME280;68102;46.068;18.206;2023-04-15T02:22:38;99122.16;;;7.46;86.08
78603;BME280;68102;46.068;18.206;2023-04-15T02:23:09;99123.13;;;7.45;85.95
78603;BME280;68102;46.068;18.206;2023-04-15T02:23:40;99135.00;;;7.49;85.78
78603;BME280;68102;46.068;18.206;2023-04-15T02:24:11;99140.66;;;7.54;85.77
78603;BME280;68102;46.068;18.206;2023-04-15T02:24:41;99123.34;;;7.42;86.39
78603;BME280;68102;46.068;18.206;2023-04-15T02:25:12;99130.84;;;7.47;85.91
78603;BME280;68102;46.068;18.206;2023-04-15T02:25:43;99127.66;;;7.43;86.24
78603;BME280;68102;46.068;18.206;2023-04-15T02:26:16;99114.09;;;7.38;86.52
78603;BME280;68102;46.068;18.206;2023-04-15T02:26:46;99133.34;;;7.48;85.81
78603;BME280;68102;46.068;18.206;2023-04-15T02:27:17;99128.91;;;7.49;86.41
78603;BME280;68102;46.068;18.206;2023-04-15T02:27:48;99132.78;;;7.45;86.31
78603;BME280;68102;46.068;18.206;2023-04-15T02:28:18;99121.47;;;7.44;85.91
78603;BME280;68102;46.068;18.206;2023-04-15T02:28:49;99137.59;;;7.40;85.92
78603;BME280;68102;46.068;18.206;2023-04-15T02:29:20;99144.09;;;7.36;85.94
78603;BME280;68102;46.068;18.206;2023-04-15T02:29:52;99128.03;;;7.29;86.04
78603;BME280;68102;46.068;18.206;2023-04-15T02:30:23;99137.72;;;7.28;86.45
78603;BME280;68102;46.068;18.206;2023-04-15T02:30:54;99147.94;;;7.32;86.89
78603;BME280;68102;46.068;18.206;2023-04-15T02:31:26;99135.09;;;7.28;86.75
78603;BME280;68102;46.068;18.206;2023-04-15T02:31:57;99141.00;;;7.21;87.03
78603;BME280;68102;46.068;18.206;2023-04-15T02:32:28;99128.84;;;7.20;86.77
78603;BME280;68102;46.068;18.206;2023-04-15T02:32:59;99144.91;;;7.26;86.63
78603;BME280;68102;46.068;18.206;2023-04-15T02:33:30;99132.84;;;7.24;86.70
78603;BME280;68102;46.068;18.206;2023-04-15T02:34:01;99134.25;;;7.28;86.74
78603;BME280;68102;46.068;18.206;2023-04-15T02:34:33;99138.97;;;7.34;87.04
78603;BME280;68102;46.068;18.206;2023-04-15T02:35:04;99134.97;;;7.30;86.61
78603;BME280;68102;46.068;18.206;2023-04-15T02:35:35;99134.69;;;7.33;86.85
78603;BME280;68102;46.068;18.206;2023-04-15T02:36:08;99133.03;;;7.32;86.94
78603;BME280;68102;46.068;18.206;2023-04-15T02:36:40;99128.59;;;7.33;86.74
78603;BME280;68102;46.068;18.206;2023-04-15T02:37:13;99137.31;;;7.33;87.10
78603;BME280;68102;46.068;18.206;2023-04-15T02:37:43;99131.38;;;7.31;86.49
78603;BME280;68102;46.068;18.206;2023-04-15T02:38:15;99138.41;;;7.40;85.87
78603;BME280;68102;46.068;18.206;2023-04-15T02:38:47;99126.13;;;7.31;86.60
78603;BME280;68102;46.068;18.206;2023-04-15T02:39:17;99127.50;;;7.35;86.27
78603;BME280;68102;46.068;18.206;2023-04-15T02:39:48;99131.13;;;7.44;85.73
78603;BME280;68102;46.068;18.206;2023-04-15T02:40:19;99125.75;;;7.45;86.08
78603;BME280;68102;46.068;18.206;2023-04-15T02:40:50;99111.75;;;7.35;85.93
78603;BME280;68102;46.068;18.206;2023-04-15T02:41:21;99138.16;;;7.43;85.92
78603;BME280;68102;46.068;18.206;2023-04-15T02:41:56;99136.94;;;7.47;86.02
78603;BME280;68102;46.068;18.206;2023-04-15T02:42:28;99145.63;;;7.48;86.03
78603;BME280;68102;46.068;18.206;2023-04-15T02:42:59;99136.09;;;7.47;85.47
78603;BME280;68102;46.068;18.206;2023-04-15T02:43:30;99141.75;;;7.42;85.89
78603;BME280;68102;46.068;18.206;2023-04-15T02:44:00;99117.28;;;7.32;86.12
78603;BME280;68102;46.068;18.206;2023-04-15T02:44:31;99130.03;;;7.46;85.92
78603;BME280;68102;46.068;18.206;2023-04-15T02:45:04;99140.94;;;7.51;85.43
78603;BME280;68102;46.068;18.206;2023-04-15T02:45:35;99134.69;;;7.43;86.00
78603;BME280;68102;46.068;18.206;2023-04-15T02:46:05;99136.94;;;7.47;86.28